sensor_id;sensor_type;location;lat;lon;timestamp;temperature;humidity
5956;DHT22;3004;48.080;11.600;2023-08-30T09:06:39;14.40;99.90
5956;DHT22;3004;48.080;11.600;2023-08-30T09:09:19;14.20;99.90
5956;DHT22;3004;48.080;11.600;2023-08-30T09:11:54;14.20;99.90
5956;DHT22;3004;48.080;11.600;2023-08-30T09:14:22;14.30;99.90
5956;DHT22;3004;48.080;11.600;2023-08-30T09:17:01;14.30;99.90
5956;DHT22;3004;48.080;11.600;2023-08-30T09:19:38;14.40;99.90
5956;DHT22;3004;48.080;11.600;2023-08-30T09:22:08;14.60;99.90
5956;DHT22;3004;48.080;11.600;2023-08-30T09:24:41;14.70;99.90
5956;DHT22;3004;48.080;11.600;2023-08-30T09:27:08;14.60;99.90
5956;DHT22;3004;48.080;11.600;2023-08-30T09:29:40;14.60;99.90
5956;DHT22;3004;48.080;11.600;2023-08-30T09:32:09;14.60;99.90
5956;DHT22;3004;48.080;11.600;2023-08-30T09:34:47;14.70;99.90
5956;DHT22;3004;48.080;11.600;2023-08-30T09:37:23;14.90;99.90
5956;DHT22;3004;48.080;11.600;2023-08-30T09:40:09;15.00;99.90
5956;DHT22;3004;48.080;11.600;2023-08-30T09:42:53;15.10;99.90
5956;DHT22;3004;48.080;11.600;2023-08-30T09:45:44;15.00;99.90
5956;DHT22;3004;48.080;11.600;2023-08-30T09:48:14;15.00;99.90
5956;DHT22;3004;48.080;11.600;2023-08-30T10:08:44;15.20;99.90
5956;DHT22;3004;48.080;11.600;2023-08-30T10:14:58;15.10;99.90
5956;DHT22;3004;48.080;11.600;2023-08-30T10:31:37;14.90;99.90
5956;DHT22;3004;48.080;11.600;2023-08-30T10:37:54;15.20;99.90
5956;DHT22;3004;48.080;11.600;2023-08-30T10:40:32;15.10;99.90
5956;DHT22;3004;48.080;11.600;2023-08-30T10:42:59;15.00;99.90
5956;DHT22;3004;48.080;11.600;2023-08-30T10:45:27;15.10;99.90
5956;DHT22;3004;48.080;11.600;2023-08-30T10:48:17;15.20;99.90
5956;DHT22;3004;48.080;11.600;2023-08-30T10:51:00;15.40;99.90
5956;DHT22;3004;48.080;11.600;2023-08-30T10:53:36;15.50;99.90
5956;DHT22;3004;48.080;11.600;2023-08-30T10:56:09;15.80;99.90
5956;DHT22;3004;48.080;11.600;2023-08-30T10:58:41;15.90;99.90
5956;DHT22;3004;48.080;11.600;2023-08-30T11:01:10;15.80;99.90
5956;DHT22;3004;48.080;11.600;2023-08-30T11:03:42;15.70;99.90
5956;DHT22;3004;48.080;11.600;2023-08-30T11:06:13;15.70;99.90
5956;DHT22;3004;48.080;11.600;2023-08-30T11:08:43;15.70;99.90
5956;DHT22;3004;48.080;11.600;2023-08-30T11:11:10;15.90;99.90
5956;DHT22;3004;48.080;11.600;2023-08-30T11:13:40;15.70;99.90
5956;DHT22;3004;48.080;11.600;2023-08-30T11:16:07;15.80;99.90
5956;DHT22;3004;48.080;11.600;2023-08-30T11:18:38;16.00;99.90
5956;DHT22;3004;48.080;11.600;2023-08-30T11:21:09;16.10;99.90
5956;DHT22;3004;48.080;11.600;2023-08-30T11:23:38;15.90;99.90
5956;DHT22;3004;48.080;11.600;2023-08-30T11:26:07;15.90;99.90
5956;DHT22;3004;48.080;11.600;2023-08-30T11:28:35;16.10;99.90
5956;DHT22;3004;48.080;11.600;2023-08-30T11:31:07;16.10;99.90
5956;DHT22;3004;48.080;11.600;2023-08-30T11:33:34;15.90;99.90
5956;DHT22;3004;48.080;11.600;2023-08-30T11:36:00;15.90;99.90
5956;DHT22;3004;48.080;11.600;2023-08-30T11:38:29;16.10;99.90
5956;DHT22;3004;48.080;11.600;2023-08-30T11:40:58;16.10;99.90
5956;DHT22;3004;48.080;11.600;2023-08-30T11:43:24;16.40;99.90
5956;DHT22;3004;48.080;11.600;2023-08-30T11:45:56;16.50;99.90
5956;DHT22;3004;48.080;11.600;2023-08-30T11:48:23;16.40;99.90
5956;DHT22;3004;48.080;11.600;2023-08-30T11:50:50;16.30;99.90
5956;DHT22;3004;48.080;11.600;2023-08-30T11:53:17;16.20;99.90
5956;DHT22;3004;48.080;11.600;2023-08-30T11:55:46;16.20;99.90
5956;DHT22;3004;48.080;11.600;2023-08-30T11:58:13;16.30;99.90
5956;DHT22;3004;48.080;11.600;2023-08-30T12:00:40;16.30;99.90
5956;DHT22;3004;48.080;11.600;2023-08-30T12:03:07;16.40;99.90
5956;DHT22;3004;48.080;11.600;2023-08-30T12:05:34;16.50;99.90
5956;DHT22;3004;48.080;11.600;2023-08-30T12:08:02;16.40;99.90
5956;DHT22;3004;48.080;11.600;2023-08-30T12:10:29;16.40;99.90
5956;DHT22;3004;48.080;11.600;2023-08-30T12:12:59;16.30;99.90
5956;DHT22;3004;48.080;11.600;2023-08-30T12:15:26;16.20;99.90
5956;DHT22;3004;48.080;11.600;2023-08-30T12:17:54;16.20;99.90
5956;DHT22;3004;48.080;11.600;2023-08-30T12:20:21;16.40;99.90
5956;DHT22;3004;48.080;11.600;2023-08-30T12:22:49;16.50;99.90
5956;DHT22;3004;48.080;11.600;2023-08-30T12:25:20;16.60;99.90
5956;DHT22;3004;48.080;11.600;2023-08-30T12:27:48;16.70;99.90
5956;DHT22;3004;48.080;11.600;2023-08-30T12:30:17;16.70;99.90
5956;DHT22;3004;48.080;11.600;2023-08-30T12:32:44;16.50;99.90
5956;DHT22;3004;48.080;11.600;2023-08-30T12:35:12;16.40;99.90
5956;DHT22;3004;48.080;11.600;2023-08-30T12:37:39;16.40;99.90
5956;DHT22;3004;48.080;11.600;2023-08-30T12:40:06;16.20;99.90
5956;DHT22;3004;48.080;11.600;2023-08-30T12:42:34;16.30;99.90
5956;DHT22;3004;48.080;11.600;2023-08-30T12:45:00;16.40;99.90
5956;DHT22;3004;48.080;11.600;2023-08-30T12:47:30;16.40;99.90
5956;DHT22;3004;48.080;11.600;2023-08-30T12:49:58;16.40;99.90
5956;DHT22;3004;48.080;11.600;2023-08-30T12:52:25;16.30;99.90
5956;DHT22;3004;48.080;11.600;2023-08-30T12:54:52;16.30;99.90
5956;DHT22;3004;48.080;11.600;2023-08-30T12:57:19;16.30;99.90
5956;DHT22;3004;48.080;11.600;2023-08-30T12:59:46;16.30;99.90
5956;DHT22;3004;48.080;11.600;2023-08-30T13:02:13;16.30;99.90
5956;DHT22;3004;48.080;11.600;2023-08-30T13:04:41;16.30;99.90
5956;DHT22;3004;48.080;11.600;2023-08-30T13:07:08;16.40;99.90
5956;DHT22;3004;48.080;11.600;2023-08-30T13:09:35;16.30;99.90
5956;DHT22;3004;48.080;11.600;2023-08-30T13:12:03;16.60;99.90
5956;DHT22;3004;48.080;11.600;2023-08-30T13:14:30;17.00;99.90
5956;DHT22;3004;48.080;11.600;2023-08-30T13:16:57;17.30;99.90
5956;DHT22;3004;48.080;11.600;2023-08-30T13:19:24;17.50;99.90
5956;DHT22;3004;48.080;11.600;2023-08-30T13:21:53;17.40;99.90
5956;DHT22;3004;48.080;11.600;2023-08-30T13:24:20;17.10;99.90
5956;DHT22;3004;48.080;11.600;2023-08-30T13:26:47;17.00;99.90
5956;DHT22;3004;48.080;11.600;2023-08-30T13:29:14;16.80;99.90
5956;DHT22;3004;48.080;11.600;2023-08-30T13:31:41;16.70;99.90
5956;DHT22;3004;48.080;11.600;2023-08-30T13:34:08;16.60;99.90
5956;DHT22;3004;48.080;11.600;2023-08-30T13:36:35;16.70;99.90
5956;DHT22;3004;48.080;11.600;2023-08-30T13:39:06;16.60;99.90
5956;DHT22;3004;48.080;11.600;2023-08-30T13:41:33;16.50;99.90
5956;DHT22;3004;48.080;11.600;2023-08-30T13:44:01;16.50;99.90
5956;DHT22;3004;48.080;11.600;2023-08-30T13:46:29;16.40;99.90
5956;DHT22;3004;48.080;11.600;2023-08-30T13:48:56;16.30;99.90
5956;DHT22;3004;48.080;11.600;2023-08-30T13:51:23;16.40;99.90
5956;DHT22;3004;48.080;11.600;2023-08-30T13:53:50;16.40;99.90
5956;DHT22;3004;48.080;11.600;2023-08-30T13:56:19;16.60;99.90
5956;DHT22;3004;48.080;11.600;2023-08-30T13:58:46;16.70;99.90
5956;DHT22;3004;48.080;11.600;2023-08-30T14:01:14;16.60;99.90
5956;DHT22;3004;48.080;11.600;2023-08-30T14:03:41;16.60;99.90
5956;DHT22;3004;48.080;11.600;2023-08-30T14:06:11;16.50;99.90
5956;DHT22;3004;48.080;11.600;2023-08-30T14:08:38;16.50;99.90
5956;DHT22;3004;48.080;11.600;2023-08-30T14:11:07;16.30;99.90
5956;DHT22;3004;48.080;11.600;2023-08-30T14:13:35;16.00;99.90
5956;DHT22;3004;48.080;11.600;2023-08-30T14:16:05;15.80;99.90
5956;DHT22;3004;48.080;11.600;2023-08-30T14:18:32;15.60;99.90
5956;DHT22;3004;48.080;11.600;2023-08-30T14:20:59;15.60;99.90
5956;DHT22;3004;48.080;11.600;2023-08-30T14:23:30;15.50;99.90
5956;DHT22;3004;48.080;11.600;2023-08-30T14:26:00;15.50;99.90
5956;DHT22;3004;48.080;11.600;2023-08-30T14:28:41;15.60;99.90
5956;DHT22;3004;48.080;11.600;2023-08-30T14:31:25;15.60;99.90
5956;DHT22;3004;48.080;11.600;2023-08-30T14:33:58;15.50;99.90
5956;DHT22;3004;48.080;11.600;2023-08-30T14:36:40;15.40;99.90
5956;DHT22;3004;48.080;11.600;2023-08-30T14:39:17;15.30;99.90
5956;DHT22;3004;48.080;11.600;2023-08-30T14:42:02;15.30;99.90
5956;DHT22;3004;48.080;11.600;2023-08-30T14:44:49;15.40;99.90
5956;DHT22;3004;48.080;11.600;2023-08-30T14:47:35;15.50;99.90
5956;DHT22;3004;48.080;11.600;2023-08-30T14:50:04;15.60;99.90
5956;DHT22;3004;48.080;11.600;2023-08-30T14:52:34;15.70;99.90
5956;DHT22;3004;48.080;11.600;2023-08-30T14:55:01;15.70;99.90
5956;DHT22;3004;48.080;11.600;2023-08-30T14:57:28;15.70;99.90
5956;DHT22;3004;48.080;11.600;2023-08-30T14:59:57;15.60;99.90
5956;DHT22;3004;48.080;11.600;2023-08-30T15:02:24;15.70;99.90
5956;DHT22;3004;48.080;11.600;2023-08-30T15:04:55;15.90;99.90
5956;DHT22;3004;48.080;11.600;2023-08-30T15:07:22;16.00;99.90
5956;DHT22;3004;48.080;11.600;2023-08-30T15:09:49;16.10;99.90
5956;DHT22;3004;48.080;11.600;2023-08-30T15:12:16;16.20;99.90
5956;DHT22;3004;48.080;11.600;2023-08-30T15:14:44;16.30;99.90
5956;DHT22;3004;48.080;11.600;2023-08-30T15:17:14;16.30;99.90
5956;DHT22;3004;48.080;11.600;2023-08-30T15:19:43;16.30;99.90
5956;DHT22;3004;48.080;11.600;2023-08-30T15:22:11;16.40;99.90
5956;DHT22;3004;48.080;11.600;2023-08-30T15:24:38;16.40;99.90
5956;DHT22;3004;48.080;11.600;2023-08-30T15:27:08;16.30;99.90
5956;DHT22;3004;48.080;11.600;2023-08-30T15:29:37;16.40;99.90
5956;DHT22;3004;48.080;11.600;2023-08-30T15:32:09;16.30;99.90
5956;DHT22;3004;48.080;11.600;2023-08-30T15:41:42;16.50;99.90
5956;DHT22;3004;48.080;11.600;2023-08-30T15:44:24;16.60;99.90
5956;DHT22;3004;48.080;11.600;2023-08-30T15:50:13;16.80;99.90
5956;DHT22;3004;48.080;11.600;2023-08-30T15:52:40;16.90;99.90
5956;DHT22;3004;48.080;11.600;2023-08-30T15:55:07;16.90;99.90
5956;DHT22;3004;48.080;11.600;2023-08-30T15:57:36;16.90;99.90
5956;DHT22;3004;48.080;11.600;2023-08-30T16:00:04;16.80;99.90
5956;DHT22;3004;48.080;11.600;2023-08-30T16:02:33;16.70;99.90
5956;DHT22;3004;48.080;11.600;2023-08-30T16:05:03;16.70;99.90
5956;DHT22;3004;48.080;11.600;2023-08-30T16:07:30;16.70;99.90
5956;DHT22;3004;48.080;11.600;2023-08-30T16:09:57;16.60;99.90
5956;DHT22;3004;48.080;11.600;2023-08-30T16:12:24;16.60;99.90
5956;DHT22;3004;48.080;11.600;2023-08-30T16:14:52;16.50;99.90
5956;DHT22;3004;48.080;11.600;2023-08-30T16:17:19;16.50;99.90
5956;DHT22;3004;48.080;11.600;2023-08-30T16:19:54;16.50;99.90
5956;DHT22;3004;48.080;11.600;2023-08-30T16:22:22;16.50;99.90
5956;DHT22;3004;48.080;11.600;2023-08-30T16:24:54;16.40;99.90
5956;DHT22;3004;48.080;11.600;2023-08-30T16:27:21;16.50;99.90
5956;DHT22;3004;48.080;11.600;2023-08-30T16:29:48;16.50;99.90
5956;DHT22;3004;48.080;11.600;2023-08-30T16:32:20;16.40;99.90
5956;DHT22;3004;48.080;11.600;2023-08-30T16:34:47;16.30;99.90
5956;DHT22;3004;48.080;11.600;2023-08-30T16:37:15;16.40;99.90
5956;DHT22;3004;48.080;11.600;2023-08-30T16:39:42;16.30;99.90
5956;DHT22;3004;48.080;11.600;2023-08-30T16:42:09;16.30;99.90
5956;DHT22;3004;48.080;11.600;2023-08-30T16:44:36;16.30;99.90
5956;DHT22;3004;48.080;11.600;2023-08-30T16:47:04;16.20;99.90
5956;DHT22;3004;48.080;11.600;2023-08-30T16:49:32;16.20;99.90
5956;DHT22;3004;48.080;11.600;2023-08-30T16:52:00;16.10;99.90
5956;DHT22;3004;48.080;11.600;2023-08-30T16:54:27;16.20;99.90
5956;DHT22;3004;48.080;11.600;2023-08-30T16:56:54;16.20;99.90
5956;DHT22;3004;48.080;11.600;2023-08-30T17:13:06;16.10;99.90
5956;DHT22;3004;48.080;11.600;2023-08-30T17:15:33;16.10;99.90
5956;DHT22;3004;48.080;11.600;2023-08-30T17:18:03;16.20;99.90
5956;DHT22;3004;48.080;11.600;2023-08-30T17:20:34;16.30;99.90
5956;DHT22;3004;48.080;11.600;2023-08-30T17:23:25;16.20;99.90
5956;DHT22;3004;48.080;11.600;2023-08-30T17:25:55;16.10;99.90
5956;DHT22;3004;48.080;11.600;2023-08-30T17:28:52;16.10;99.90
5956;DHT22;3004;48.080;11.600;2023-08-30T17:31:22;16.20;99.90
5956;DHT22;3004;48.080;11.600;2023-08-30T17:33:52;16.00;99.90
5956;DHT22;3004;48.080;11.600;2023-08-30T17:36:37;16.00;99.90
5956;DHT22;3004;48.080;11.600;2023-08-30T19:24:54;13.80;99.90
5956;DHT22;3004;48.080;11.600;2023-08-30T19:27:22;13.80;99.90
5956;DHT22;3004;48.080;11.600;2023-08-30T19:29:52;13.80;99.90
5956;DHT22;3004;48.080;11.600;2023-08-30T19:32:18;13.80;99.90
5956;DHT22;3004;48.080;11.600;2023-08-30T19:34:46;13.70;99.90
5956;DHT22;3004;48.080;11.600;2023-08-30T19:37:23;13.70;99.90
5956;DHT22;3004;48.080;11.600;2023-08-30T19:40:07;13.70;99.90
5956;DHT22;3004;48.080;11.600;2023-08-30T19:42:40;13.70;99.90
5956;DHT22;3004;48.080;11.600;2023-08-30T19:45:13;13.70;99.90
5956;DHT22;3004;48.080;11.600;2023-08-30T19:47:42;13.70;99.90
5956;DHT22;3004;48.080;11.600;2023-08-30T19:50:09;13.60;99.90
5956;DHT22;3004;48.080;11.600;2023-08-30T19:52:36;13.60;99.90
5956;DHT22;3004;48.080;11.600;2023-08-30T19:55:08;13.60;99.90
5956;DHT22;3004;48.080;11.600;2023-08-30T20:08:06;13.40;99.90
5956;DHT22;3004;48.080;11.600;2023-08-30T20:10:46;13.30;99.90
5956;DHT22;3004;48.080;11.600;2023-08-30T20:16:40;13.30;99.90
5956;DHT22;3004;48.080;11.600;2023-08-30T20:19:16;13.30;99.90
5956;DHT22;3004;48.080;11.600;2023-08-30T21:14:11;13.40;99.90
5956;DHT22;3004;48.080;11.600;2023-08-30T21:16:38;13.40;99.90
5956;DHT22;3004;48.080;11.600;2023-08-30T21:19:06;13.50;99.90
5956;DHT22;3004;48.080;11.600;2023-08-30T21:21:33;13.50;99.90
5956;DHT22;3004;48.080;11.600;2023-08-30T21:24:00;13.50;99.90
5956;DHT22;3004;48.080;11.600;2023-08-30T21:26:27;13.50;99.90
5956;DHT22;3004;48.080;11.600;2023-08-30T21:28:54;13.50;99.90
5956;DHT22;3004;48.080;11.600;2023-08-30T21:31:22;13.50;99.90
5956;DHT22;3004;48.080;11.600;2023-08-30T21:33:52;13.50;99.90
5956;DHT22;3004;48.080;11.600;2023-08-30T21:36:26;13.50;99.90
5956;DHT22;3004;48.080;11.600;2023-08-30T21:38:56;13.60;99.90
5956;DHT22;3004;48.080;11.600;2023-08-30T21:41:23;13.50;99.90
5956;DHT22;3004;48.080;11.600;2023-08-30T21:43:54;13.50;99.90
5956;DHT22;3004;48.080;11.600;2023-08-30T21:46:26;13.50;99.90
5956;DHT22;3004;48.080;11.600;2023-08-30T21:48:54;13.60;99.90
5956;DHT22;3004;48.080;11.600;2023-08-30T21:51:21;13.50;99.90
5956;DHT22;3004;48.080;11.600;2023-08-30T21:53:51;13.60;99.90
5956;DHT22;3004;48.080;11.600;2023-08-30T21:56:20;13.60;99.90
5956;DHT22;3004;48.080;11.600;2023-08-30T21:58:51;13.60;99.90
5956;DHT22;3004;48.080;11.600;2023-08-30T22:01:19;13.60;99.90
5956;DHT22;3004;48.080;11.600;2023-08-30T22:03:48;13.60;99.90
5956;DHT22;3004;48.080;11.600;2023-08-30T22:06:16;13.60;99.90
5956;DHT22;3004;48.080;11.600;2023-08-30T22:08:44;13.70;99.90
5956;DHT22;3004;48.080;11.600;2023-08-30T22:11:12;13.70;99.90
5956;DHT22;3004;48.080;11.600;2023-08-30T22:17:02;13.70;99.90
5956;DHT22;3004;48.080;11.600;2023-08-30T22:19:31;13.70;99.90
5956;DHT22;3004;48.080;11.600;2023-08-30T22:21:58;13.70;99.90
5956;DHT22;3004;48.080;11.600;2023-08-30T22:24:29;13.70;99.90
5956;DHT22;3004;48.080;11.600;2023-08-30T22:26:58;13.80;99.90
5956;DHT22;3004;48.080;11.600;2023-08-30T22:29:28;13.80;99.90
5956;DHT22;3004;48.080;11.600;2023-08-30T22:31:56;13.80;99.90
5956;DHT22;3004;48.080;11.600;2023-08-30T22:34:23;13.70;99.90
5956;DHT22;3004;48.080;11.600;2023-08-30T22:36:52;13.70;99.90
5956;DHT22;3004;48.080;11.600;2023-08-30T22:39:22;13.70;99.90
5956;DHT22;3004;48.080;11.600;2023-08-30T22:41:50;13.70;99.90
5956;DHT22;3004;48.080;11.600;2023-08-30T22:44:19;13.70;99.90
5956;DHT22;3004;48.080;11.600;2023-08-30T22:46:46;13.70;99.90
5956;DHT22;3004;48.080;11.600;2023-08-30T22:49:13;13.70;99.90
5956;DHT22;3004;48.080;11.600;2023-08-30T22:51:42;13.60;99.90
5956;DHT22;3004;48.080;11.600;2023-08-30T22:57:32;13.50;99.90
5956;DHT22;3004;48.080;11.600;2023-08-30T23:00:03;13.50;99.90
5956;DHT22;3004;48.080;11.600;2023-08-30T23:02:34;13.40;99.90
5956;DHT22;3004;48.080;11.600;2023-08-30T23:05:01;13.40;99.90
5956;DHT22;3004;48.080;11.600;2023-08-30T23:07:28;13.30;99.90
5956;DHT22;3004;48.080;11.600;2023-08-30T23:10:01;13.30;99.90
5956;DHT22;3004;48.080;11.600;2023-08-30T23:12:42;13.30;99.90
5956;DHT22;3004;48.080;11.600;2023-08-30T23:15:13;13.20;99.90
5956;DHT22;3004;48.080;11.600;2023-08-30T23:17:44;13.20;99.90
5956;DHT22;3004;48.080;11.600;2023-08-30T23:20:14;13.10;99.90
5956;DHT22;3004;48.080;11.600;2023-08-30T23:22:42;13.20;99.90
5956;DHT22;3004;48.080;11.600;2023-08-30T23:25:11;13.10;99.90
5956;DHT22;3004;48.080;11.600;2023-08-30T23:27:44;13.10;99.90
5956;DHT22;3004;48.080;11.600;2023-08-30T23:30:16;13.10;99.90
5956;DHT22;3004;48.080;11.600;2023-08-30T23:32:45;13.10;99.90
5956;DHT22;3004;48.080;11.600;2023-08-30T23:35:15;13.10;99.90
5956;DHT22;3004;48.080;11.600;2023-08-30T23:37:53;13.10;99.90
5956;DHT22;3004;48.080;11.600;2023-08-30T23:40:20;13.20;99.90
5956;DHT22;3004;48.080;11.600;2023-08-30T23:42:52;13.10;99.90
5956;DHT22;3004;48.080;11.600;2023-08-30T23:45:22;13.10;99.90
5956;DHT22;3004;48.080;11.600;2023-08-30T23:47:51;13.10;99.90
5956;DHT22;3004;48.080;11.600;2023-08-30T23:50:20;13.10;99.90
5956;DHT22;3004;48.080;11.600;2023-08-30T23:52:48;13.10;99.90
5956;DHT22;3004;48.080;11.600;2023-08-30T23:55:18;13.10;99.90
5956;DHT22;3004;48.080;11.600;2023-08-30T23:57:59;13.10;99.90
